Home > Products > Valid Products > TAF

000
FTUS42 KGSP 272058 AAA
TAFCLT
TAF AMD
KCLT 272058Z 2721/2818 01008KT P6SM FEW025 OVC050
     FM280400 32005KT P6SM BKN060
     FM280900 33006KT P6SM SCT250
     FM281500 33010KT P6SM FEW035=



000
FTUS42 KGSP 272058 AAA
TAFCLT
TAF AMD
KCLT 272058Z 2721/2818 01008KT P6SM FEW025 OVC050
     FM280400 32005KT P6SM BKN060
     FM280900 33006KT P6SM SCT250
     FM281500 33010KT P6SM FEW035=



000
FTUS42 KGSP 272042 AAB
TAFGSP
TAF AMD
KGSP 272042Z 2721/2818 36007KT P6SM BKN050
      TEMPO 2721/2724 36010G17KT
     FM280700 33006KT P6SM SCT110=



000
FTUS42 KGSP 272042 AAB
TAFGSP
TAF AMD
KGSP 272042Z 2721/2818 36007KT P6SM BKN050
      TEMPO 2721/2724 36010G17KT
     FM280700 33006KT P6SM SCT110=



000
FTUS42 KGSP 272040 AAA
TAFAVL
TAF AMD
KAVL 272040Z 2721/2818 36012G20KT P6SM BKN050
      TEMPO 2721/2724 36016G33KT
     FM281000 33010G18KT P6SM SCT100=



000
FTUS42 KGSP 272040 AAA
TAFAVL
TAF AMD
KAVL 272040Z 2721/2818 36012G20KT P6SM BKN050
      TEMPO 2721/2724 36016G33KT
     FM281000 33010G18KT P6SM SCT100=



000
FTUS42 KGSP 272040 AAA
TAFAVL
TAF AMD
KAVL 272040Z 2721/2818 36012G20KT P6SM BKN050
      TEMPO 2721/2724 36016G33KT
     FM281000 33010G18KT P6SM SCT100=



000
FTUS42 KGSP 271733
TAFGSP
TAF
KGSP 271733Z 2718/2818 01007KT P6SM OVC025
     FM272100 36007KT P6SM BKN045
     FM280700 33006KT P6SM SCT110=



000
FTUS42 KGSP 271733
TAFAVL
TAF
KAVL 271733Z 2718/2818 34012G20KT P6SM OVC030
     FM271900 33012G18KT P6SM BKN045
     FM281000 33010G18KT P6SM SCT100=



000
FTUS42 KGSP 271733
TAFCLT
TAF
KCLT 271733Z 2718/2818 01010G17KT P6SM OVC025
     FM272200 01008KT P6SM OVC040
     FM280400 32005KT P6SM BKN060
     FM280900 33006KT P6SM SCT250
     FM281500 33010KT P6SM FEW035=



000
FTUS42 KGSP 271733
TAFCLT
TAF
KCLT 271733Z 2718/2818 01010G17KT P6SM OVC025
     FM272200 01008KT P6SM OVC040
     FM280400 32005KT P6SM BKN060
     FM280900 33006KT P6SM SCT250
     FM281500 33010KT P6SM FEW035=



000
FTUS42 KGSP 271733
TAFGSP
TAF
KGSP 271733Z 2718/2818 01007KT P6SM OVC025
     FM272100 36007KT P6SM BKN045
     FM280700 33006KT P6SM SCT110=



000
FTUS42 KGSP 271733
TAFAVL
TAF
KAVL 271733Z 2718/2818 34012G20KT P6SM OVC030
     FM271900 33012G18KT P6SM BKN045
     FM281000 33010G18KT P6SM SCT100=



000
FTUS42 KGSP 271524 AAA
TAFAVL
TAF AMD
KAVL 271524Z 2715/2812 34012G20KT P6SM OVC030
     FM271900 33009G16KT P6SM BKN045
     FM280800 33010KT P6SM SCT100=



000
FTUS42 KGSP 271524 AAA
TAFAVL
TAF AMD
KAVL 271524Z 2715/2812 34012G20KT P6SM OVC030
     FM271900 33009G16KT P6SM BKN045
     FM280800 33010KT P6SM SCT100=



000
FTUS42 KGSP 271455 AAA
TAFCLT
TAF AMD
KCLT 271455Z 2715/2812 01010G17KT P6SM VCSH FEW009 OVC020
      TEMPO 2715/2716 6SM -SHRA BR BKN009
     FM271700 01009G17KT P6SM OVC020
     FM272100 35004KT P6SM OVC040
     FM280500 33006KT P6SM BKN060
     FM280900 33007KT P6SM SCT250=



000
FTUS42 KGSP 271455 AAA
TAFCLT
TAF AMD
KCLT 271455Z 2715/2812 01010G17KT P6SM VCSH FEW009 OVC020
      TEMPO 2715/2716 6SM -SHRA BR BKN009
     FM271700 01009G17KT P6SM OVC020
     FM272100 35004KT P6SM OVC040
     FM280500 33006KT P6SM BKN060
     FM280900 33007KT P6SM SCT250=



000
FTUS42 KGSP 271134
TAFGSP
TAF
KGSP 271134Z 2712/2812 33005KT 5SM -SHRA BR OVC025
     FM271600 01007KT P6SM OVC025
     FM272000 34005KT P6SM BKN045
     FM280600 33009KT P6SM SCT110=



000
FTUS42 KGSP 271134
TAFCLT
TAF
KCLT 271134Z 2712/2812 01011G19KT P6SM -SHRA OVC020
      TEMPO 2712/2716 5SM SHRA BR SCT008
     FM271700 01009G17KT P6SM OVC020
     FM272100 35004KT P6SM OVC040
     FM280500 33006KT P6SM BKN060
     FM280900 33007KT P6SM SCT250=



000
FTUS42 KGSP 271134
TAFAVL
TAF
KAVL 271134Z 2712/2812 34009KT P6SM -SHRA BKN020 OVC060
     FM271400 34008KT P6SM OVC020
     FM271900 33009KT P6SM BKN045
     FM280800 33010KT P6SM SCT100=



000
FTUS42 KGSP 271134
TAFCLT
TAF
KCLT 271134Z 2712/2812 01011G19KT P6SM -SHRA OVC020
      TEMPO 2712/2716 5SM SHRA BR SCT008
     FM271700 01009G17KT P6SM OVC020
     FM272100 35004KT P6SM OVC040
     FM280500 33006KT P6SM BKN060
     FM280900 33007KT P6SM SCT250=



000
FTUS42 KGSP 271134
TAFGSP
TAF
KGSP 271134Z 2712/2812 33005KT 5SM -SHRA BR OVC025
     FM271600 01007KT P6SM OVC025
     FM272000 34005KT P6SM BKN045
     FM280600 33009KT P6SM SCT110=



000
FTUS42 KGSP 271134
TAFAVL
TAF
KAVL 271134Z 2712/2812 34009KT P6SM -SHRA BKN020 OVC060
     FM271400 34008KT P6SM OVC020
     FM271900 33009KT P6SM BKN045
     FM280800 33010KT P6SM SCT100=



000
FTUS42 KGSP 271134
TAFAVL
TAF
KAVL 271134Z 2712/2812 34009KT P6SM -SHRA BKN020 OVC060
     FM271400 34008KT P6SM OVC020
     FM271900 33009KT P6SM BKN045
     FM280800 33010KT P6SM SCT100=



000
FTUS42 KGSP 271134
TAFCLT
TAF
KCLT 271134Z 2712/2812 01011G19KT P6SM -SHRA OVC020
      TEMPO 2712/2716 5SM SHRA BR SCT008
     FM271700 01009G17KT P6SM OVC020
     FM272100 35004KT P6SM OVC040
     FM280500 33006KT P6SM BKN060
     FM280900 33007KT P6SM SCT250=



000
FTUS42 KGSP 271134
TAFAVL
TAF
KAVL 271134Z 2712/2812 34009KT P6SM -SHRA BKN020 OVC060
     FM271400 34008KT P6SM OVC020
     FM271900 33009KT P6SM BKN045
     FM280800 33010KT P6SM SCT100=



000
FTUS42 KGSP 271134
TAFCLT
TAF
KCLT 271134Z 2712/2812 01011G19KT P6SM -SHRA OVC020
      TEMPO 2712/2716 5SM SHRA BR SCT008
     FM271700 01009G17KT P6SM OVC020
     FM272100 35004KT P6SM OVC040
     FM280500 33006KT P6SM BKN060
     FM280900 33007KT P6SM SCT250=



000
FTUS42 KGSP 270859 AAB
TAFCLT
TAF AMD
KCLT 270859Z 2709/2806 31004KT P6SM VCSH SCT020 OVC030
     FM271000 34012G16KT P6SM -SHRA BKN020 OVC060
     FM271600 02010KT P6SM OVC020
     FM272100 36006KT P6SM BKN060=



000
FTUS42 KGSP 270859 AAB
TAFCLT
TAF AMD
KCLT 270859Z 2709/2806 31004KT P6SM VCSH SCT020 OVC030
     FM271000 34012G16KT P6SM -SHRA BKN020 OVC060
     FM271600 02010KT P6SM OVC020
     FM272100 36006KT P6SM BKN060=



000
FTUS42 KGSP 270859 AAB
TAFCLT
TAF AMD
KCLT 270859Z 2709/2806 31004KT P6SM VCSH SCT020 OVC030
     FM271000 34012G16KT P6SM -SHRA BKN020 OVC060
     FM271600 02010KT P6SM OVC020
     FM272100 36006KT P6SM BKN060=



000
FTUS42 KGSP 270859 AAB
TAFCLT
TAF AMD
KCLT 270859Z 2709/2806 31004KT P6SM VCSH SCT020 OVC030
     FM271000 34012G16KT P6SM -SHRA BKN020 OVC060
     FM271600 02010KT P6SM OVC020
     FM272100 36006KT P6SM BKN060=



000
FTUS42 KGSP 270811 AAA
TAFAVL
TAF AMD
KAVL 270811Z 2708/2806 33012G15KT P6SM -SHRA SCT024 OVC060
     FM271200 34014G22KT P6SM OVC025
     FM271900 34012G18KT P6SM BKN045=



000
FTUS42 KGSP 270804 AAB
TAFGSP
TAF AMD
KGSP 270804Z 2708/2806 35005KT P6SM VCSH OVC030
     FM271000 36007KT 5SM -SHRA BR OVC020
     FM271300 36010KT P6SM OVC020
     FM271900 01006KT P6SM OVC050
     FM280000 33006KT P6SM OVC050=



000
FTUS42 KGSP 270803 AAA
TAFCLT
TAF AMD
KCLT 270803Z 2708/2806 36004KT P6SM SCT020 BKN060
     FM271200 01012G16KT P6SM -SHRA BKN020 OVC060
     FM271600 02010KT P6SM OVC020
     FM272100 36006KT P6SM BKN060=



000
FTUS42 KGSP 270803 AAA
TAFCLT
TAF AMD
KCLT 270803Z 2708/2806 36004KT P6SM SCT020 BKN060
     FM271200 01012G16KT P6SM -SHRA BKN020 OVC060
     FM271600 02010KT P6SM OVC020
     FM272100 36006KT P6SM BKN060=



000
FTUS42 KGSP 270525
TAFAVL
TAF
KAVL 270525Z 2706/2806 32015G22KT 6SM -SHRA BR BKN025 OVC040
     FM270800 33017G25KT 5SM -SHRA BR OVC025
      TEMPO 2708/2710 4SM BR OVC008
     FM271000 34013G19KT P6SM OVC025
     FM271900 34012G18KT P6SM BKN045=



000
FTUS42 KGSP 270525
TAFCLT
TAF
KCLT 270525Z 2706/2806 24009KT P6SM BKN050 OVC200
     FM270800 36007KT P6SM -SHRA OVC020
      TEMPO 2708/2712 5SM -SHRA BR
     FM271300 01012G16KT P6SM -SHRA OVC020
     FM271600 02010KT P6SM OVC020
     FM272100 36006KT P6SM BKN060=



000
FTUS42 KGSP 270525
TAFAVL
TAF
KAVL 270525Z 2706/2806 32015G22KT 6SM -SHRA BR BKN025 OVC040
     FM270800 33017G25KT 5SM -SHRA BR OVC025
      TEMPO 2708/2710 4SM BR OVC008
     FM271000 34013G19KT P6SM OVC025
     FM271900 34012G18KT P6SM BKN045=



000
FTUS42 KGSP 270525
TAFCLT
TAF
KCLT 270525Z 2706/2806 24009KT P6SM BKN050 OVC200
     FM270800 36007KT P6SM -SHRA OVC020
      TEMPO 2708/2712 5SM -SHRA BR
     FM271300 01012G16KT P6SM -SHRA OVC020
     FM271600 02010KT P6SM OVC020
     FM272100 36006KT P6SM BKN060=



000
FTUS42 KGSP 270525
TAFGSP
TAF
KGSP 270525Z 2706/2806 24008KT P6SM VCSH OVC050
     FM270700 31007KT 5SM -SHRA BR OVC020
     FM271300 36010KT P6SM OVC020
     FM271900 01006KT P6SM OVC050
     FM280000 33006KT P6SM OVC050=



000
FTUS42 KGSP 270525
TAFGSP
TAF
KGSP 270525Z 2706/2806 24008KT P6SM VCSH OVC050
     FM270700 31007KT 5SM -SHRA BR OVC020
     FM271300 36010KT P6SM OVC020
     FM271900 01006KT P6SM OVC050
     FM280000 33006KT P6SM OVC050=



000
FTUS42 KGSP 270525
TAFCLT
TAF
KCLT 270525Z 2706/2806 24009KT P6SM BKN050 OVC200
     FM270800 36007KT P6SM -SHRA OVC020
      TEMPO 2708/2712 5SM -SHRA BR
     FM271300 01012G16KT P6SM -SHRA OVC020
     FM271600 02010KT P6SM OVC020
     FM272100 36006KT P6SM BKN060=



000
FTUS42 KGSP 270525
TAFAVL
TAF
KAVL 270525Z 2706/2806 32015G22KT 6SM -SHRA BR BKN025 OVC040
     FM270800 33017G25KT 5SM -SHRA BR OVC025
      TEMPO 2708/2710 4SM BR OVC008
     FM271000 34013G19KT P6SM OVC025
     FM271900 34012G18KT P6SM BKN045=



000
FTUS42 KGSP 262320
TAFGSP
TAF
KGSP 262320Z 2700/2724 21010KT P6SM SCT060 BKN250
     FM270400 23006KT P6SM -SHRA BKN050
     FM270500 25005KT P6SM -SHRA VCTS OVC045CB
     FM270700 28004KT 4SM -SHRA OVC040
     FM271000 34006KT P6SM -SHRA OVC040
     FM271100 36007KT P6SM OVC045=



000
FTUS42 KGSP 262320
TAFGSP
TAF
KGSP 262320Z 2700/2724 21010KT P6SM SCT060 BKN250
     FM270400 23006KT P6SM -SHRA BKN050
     FM270500 25005KT P6SM -SHRA VCTS OVC045CB
     FM270700 28004KT 4SM -SHRA OVC040
     FM271000 34006KT P6SM -SHRA OVC040
     FM271100 36007KT P6SM OVC045=



000
FTUS42 KGSP 262320
TAFCLT
TAF
KCLT 262320Z 2700/2724 20010G17KT P6SM BKN230
     FM270500 21008KT P6SM -SHRA BKN060
      TEMPO 2705/2708 -TSRA BKN040CB
     FM270800 31007KT 4SM -SHRA BR OVC020
     FM271000 35008KT P6SM -SHRA OVC020
     FM271400 01011KT P6SM OVC019
     FM271500 01011KT P6SM OVC021=



000
FTUS42 KGSP 262320
TAFCLT
TAF
KCLT 262320Z 2700/2724 20010G17KT P6SM BKN230
     FM270500 21008KT P6SM -SHRA BKN060
      TEMPO 2705/2708 -TSRA BKN040CB
     FM270800 31007KT 4SM -SHRA BR OVC020
     FM271000 35008KT P6SM -SHRA OVC020
     FM271400 01011KT P6SM OVC019
     FM271500 01011KT P6SM OVC021=



000
FTUS42 KGSP 262320
TAFAVL
TAF
KAVL 262320Z 2700/2724 19008KT P6SM SCT050 BKN250
     FM270200 27007KT P6SM -SHRA VCTS OVC060CB
     FM270500 32007KT P6SM -SHRA OVC023
     FM271000 34009KT P6SM OVC018
     FM271400 34010KT P6SM BKN008
     FM271600 34009KT P6SM BKN014=



000
FTUS42 KGSP 262320
TAFAVL
TAF
KAVL 262320Z 2700/2724 19008KT P6SM SCT050 BKN250
     FM270200 27007KT P6SM -SHRA VCTS OVC060CB
     FM270500 32007KT P6SM -SHRA OVC023
     FM271000 34009KT P6SM OVC018
     FM271400 34010KT P6SM BKN008
     FM271600 34009KT P6SM BKN014=



000
FTUS42 KGSP 262320
TAFAVL
TAF
KAVL 262320Z 2700/2724 19008KT P6SM SCT050 BKN250
     FM270200 27007KT P6SM -SHRA VCTS OVC060CB
     FM270500 32007KT P6SM -SHRA OVC023
     FM271000 34009KT P6SM OVC018
     FM271400 34010KT P6SM BKN008
     FM271600 34009KT P6SM BKN014=



000
FTUS42 KGSP 262320
TAFAVL
TAF
KAVL 262320Z 2700/2724 19008KT P6SM SCT050 BKN250
     FM270200 27007KT P6SM -SHRA VCTS OVC060CB
     FM270500 32007KT P6SM -SHRA OVC023
     FM271000 34009KT P6SM OVC018
     FM271400 34010KT P6SM BKN008
     FM271600 34009KT P6SM BKN014=



000
FTUS42 KGSP 262320
TAFCLT
TAF
KCLT 262320Z 2700/2724 20010G17KT P6SM BKN230
     FM270500 21008KT P6SM -SHRA BKN060
      TEMPO 2705/2708 -TSRA BKN040CB
     FM270800 31007KT 4SM -SHRA BR OVC020
     FM271000 35008KT P6SM -SHRA OVC020
     FM271400 01011KT P6SM OVC019
     FM271500 01011KT P6SM OVC021=



000
FTUS42 KGSP 262320
TAFCLT
TAF
KCLT 262320Z 2700/2724 20010G17KT P6SM BKN230
     FM270500 21008KT P6SM -SHRA BKN060
      TEMPO 2705/2708 -TSRA BKN040CB
     FM270800 31007KT 4SM -SHRA BR OVC020
     FM271000 35008KT P6SM -SHRA OVC020
     FM271400 01011KT P6SM OVC019
     FM271500 01011KT P6SM OVC021=



000
FTUS42 KGSP 262104 AAA
TAFAVL
TAF AMD
KAVL 262104Z 2621/2718 20014G21KT P6SM SCT060 BKN250
     FM270200 31008KT P6SM -SHRA OVC019
     FM270700 34011G18KT P6SM -SHRA OVC022
     FM271000 34013G21KT P6SM OVC025
     FM271700 35010KT P6SM BKN030=



000
FTUS42 KGSP 262104 AAA
TAFAVL
TAF AMD
KAVL 262104Z 2621/2718 20014G21KT P6SM SCT060 BKN250
     FM270200 31008KT P6SM -SHRA OVC019
     FM270700 34011G18KT P6SM -SHRA OVC022
     FM271000 34013G21KT P6SM OVC025
     FM271700 35010KT P6SM BKN030=



000
FTUS42 KGSP 262059 AAA
TAFCLT
TAF AMD
KCLT 262059Z 2621/2718 21010G18KT P6SM FEW035 OVC250
     FM270000 20007KT P6SM VCSH OVC060
     FM270500 21006KT P6SM -SHRA OVC045 PROB30 2706/2708 3SM TSRA
      BKN030CB
     FM270800 30007KT P6SM -SHRA OVC020
     FM271100 36008KT 4SM -SHRA OVC016
     FM271300 01010G16KT P6SM OVC024=



000
FTUS42 KGSP 262059 AAA
TAFCLT
TAF AMD
KCLT 262059Z 2621/2718 21010G18KT P6SM FEW035 OVC250
     FM270000 20007KT P6SM VCSH OVC060
     FM270500 21006KT P6SM -SHRA OVC045 PROB30 2706/2708 3SM TSRA
      BKN030CB
     FM270800 30007KT P6SM -SHRA OVC020
     FM271100 36008KT 4SM -SHRA OVC016
     FM271300 01010G16KT P6SM OVC024=



000
FTUS42 KGSP 262059 AAA
TAFCLT
TAF AMD
KCLT 262059Z 2621/2718 21010G18KT P6SM FEW035 OVC250
     FM270000 20007KT P6SM VCSH OVC060
     FM270500 21006KT P6SM -SHRA OVC045 PROB30 2706/2708 3SM TSRA
      BKN030CB
     FM270800 30007KT P6SM -SHRA OVC020
     FM271100 36008KT 4SM -SHRA OVC016
     FM271300 01010G16KT P6SM OVC024=



000
FTUS42 KGSP 261911 AAA
TAFGSP
TAF AMD
KGSP 261911Z 2619/2718 23012G21KT P6SM SCT028 BKN035
     FM270400 23007KT P6SM -SHRA OVC050
     FM270600 24006KT 4SM -SHRA OVC016 PROB30 2706/2708 2SM TSRA
      OVC016CB
     FM270800 29008KT 4SM -SHRA OVC018
     FM271100 35007KT P6SM OVC030=



000
FTUS42 KGSP 261733
TAFCLT
TAF
KCLT 261733Z 2618/2718 21011G20KT P6SM SCT018 SCT040 OVC250
     FM270000 20007KT P6SM VCSH OVC060
     FM270500 21006KT P6SM -SHRA OVC045 PROB30 2705/2708 3SM TSRA
      BKN030CB
     FM270800 30007KT P6SM -SHRA OVC020
     FM271100 36008KT 4SM -SHRA OVC016
     FM271300 01010G16KT P6SM OVC024=



000
FTUS42 KGSP 261733
TAFCLT
TAF
KCLT 261733Z 2618/2718 21011G20KT P6SM SCT018 SCT040 OVC250
     FM270000 20007KT P6SM VCSH OVC060
     FM270500 21006KT P6SM -SHRA OVC045 PROB30 2705/2708 3SM TSRA
      BKN030CB
     FM270800 30007KT P6SM -SHRA OVC020
     FM271100 36008KT 4SM -SHRA OVC016
     FM271300 01010G16KT P6SM OVC024=



000
FTUS42 KGSP 261733
TAFGSP
TAF
KGSP 261733Z 2618/2718 23011KT P6SM SCT028 BKN040
     FM270400 23007KT P6SM -SHRA OVC050
     FM270600 24006KT 4SM -SHRA OVC016 PROB30 2706/2708 2SM TSRA
      OVC016CB
     FM270800 29008KT 4SM -SHRA OVC018
     FM271100 35007KT P6SM OVC030=



000
FTUS42 KGSP 261733
TAFAVL
TAF
KAVL 261733Z 2618/2718 18011KT P6SM SCT035 BKN060
     FM270200 31008KT P6SM -SHRA OVC019
     FM270700 34011G18KT P6SM -SHRA OVC022
     FM271000 34013G21KT P6SM OVC025
     FM271700 35010KT P6SM BKN030=



000
FTUS42 KGSP 261733
TAFAVL
TAF
KAVL 261733Z 2618/2718 18011KT P6SM SCT035 BKN060
     FM270200 31008KT P6SM -SHRA OVC019
     FM270700 34011G18KT P6SM -SHRA OVC022
     FM271000 34013G21KT P6SM OVC025
     FM271700 35010KT P6SM BKN030=



000
FTUS42 KGSP 261733
TAFCLT
TAF
KCLT 261733Z 2618/2718 21011G20KT P6SM SCT018 SCT040 OVC250
     FM270000 20007KT P6SM VCSH OVC060
     FM270500 21006KT P6SM -SHRA OVC045 PROB30 2705/2708 3SM TSRA
      BKN030CB
     FM270800 30007KT P6SM -SHRA OVC020
     FM271100 36008KT 4SM -SHRA OVC016
     FM271300 01010G16KT P6SM OVC024=



000
FTUS42 KGSP 261733
TAFAVL
TAF
KAVL 261733Z 2618/2718 18011KT P6SM SCT035 BKN060
     FM270200 31008KT P6SM -SHRA OVC019
     FM270700 34011G18KT P6SM -SHRA OVC022
     FM271000 34013G21KT P6SM OVC025
     FM271700 35010KT P6SM BKN030=



000
FTUS42 KGSP 261733
TAFGSP
TAF
KGSP 261733Z 2618/2718 23011KT P6SM SCT028 BKN040
     FM270400 23007KT P6SM -SHRA OVC050
     FM270600 24006KT 4SM -SHRA OVC016 PROB30 2706/2708 2SM TSRA
      OVC016CB
     FM270800 29008KT 4SM -SHRA OVC018
     FM271100 35007KT P6SM OVC030=



000
FTUS42 KGSP 261733
TAFCLT
TAF
KCLT 261733Z 2618/2718 21011G20KT P6SM SCT018 SCT040 OVC250
     FM270000 20007KT P6SM VCSH OVC060
     FM270500 21006KT P6SM -SHRA OVC045 PROB30 2705/2708 3SM TSRA
      BKN030CB
     FM270800 30007KT P6SM -SHRA OVC020
     FM271100 36008KT 4SM -SHRA OVC016
     FM271300 01010G16KT P6SM OVC024=



000
FTUS42 KGSP 261733
TAFAVL
TAF
KAVL 261733Z 2618/2718 18011KT P6SM SCT035 BKN060
     FM270200 31008KT P6SM -SHRA OVC019
     FM270700 34011G18KT P6SM -SHRA OVC022
     FM271000 34013G21KT P6SM OVC025
     FM271700 35010KT P6SM BKN030=



000
FTUS42 KGSP 261534 AAC
TAFGSP
TAF AMD
KGSP 261534Z 2616/2712 22011G19KT P6SM FEW015 BKN050
     FM270100 24005KT P6SM -SHRA OVC070 PROB30 2704/2707 4SM TSRA
      OVC040CB
     FM270700 33005KT 6SM -SHRA OVC012=



000
FTUS42 KGSP 261453 AAB
TAFCLT
TAF AMD
KCLT 261453Z 2615/2712 22006KT P6SM BKN016 OVC030
     FM261700 21010G19KT P6SM SCT025 BKN040
     FM270300 21007KT P6SM BKN045 PROB30 2706/2709 4SM TSRA OVC025CB
     FM270900 35009KT 6SM -SHRA OVC017=



000
FTUS42 KGSP 261453 AAB
TAFCLT
TAF AMD
KCLT 261453Z 2615/2712 22006KT P6SM BKN016 OVC030
     FM261700 21010G19KT P6SM SCT025 BKN040
     FM270300 21007KT P6SM BKN045 PROB30 2706/2709 4SM TSRA OVC025CB
     FM270900 35009KT 6SM -SHRA OVC017=



000
FTUS42 KGSP 261453 AAB
TAFCLT
TAF AMD
KCLT 261453Z 2615/2712 22006KT P6SM BKN016 OVC030
     FM261700 21010G19KT P6SM SCT025 BKN040
     FM270300 21007KT P6SM BKN045 PROB30 2706/2709 4SM TSRA OVC025CB
     FM270900 35009KT 6SM -SHRA OVC017=



000
FTUS42 KGSP 261320 AAA
TAFCLT
TAF AMD
KCLT 261320Z 2613/2712 20006KT P6SM BKN020 OVC035
      TEMPO 2613/2615 SCT007 OVC012
     FM261700 21010G19KT P6SM SCT025 BKN045
     FM270300 21007KT P6SM BKN045 PROB30 2706/2709 4SM TSRA OVC025CB
     FM270900 35009KT 6SM -SHRA OVC017=



000
FTUS42 KGSP 261320 AAA
TAFCLT
TAF AMD
KCLT 261320Z 2613/2712 20006KT P6SM BKN020 OVC035
      TEMPO 2613/2615 SCT007 OVC012
     FM261700 21010G19KT P6SM SCT025 BKN045
     FM270300 21007KT P6SM BKN045 PROB30 2706/2709 4SM TSRA OVC025CB
     FM270900 35009KT 6SM -SHRA OVC017=



000
FTUS42 KGSP 261309 AAA
TAFAVL
TAF AMD
KAVL 261309Z 2613/2712 20003KT P6SM FEW025 SCT060
     FM261600 21007KT P6SM BKN035 PROB30 2701/2704 4SM TSRA BKN040CB
     FM270600 35010G20KT 6SM -SHRA OVC020
     FM270900 35010G18KT P6SM OVC024=



000
FTUS42 KGSP 261209 AAA
TAFGSP
TAF AMD
KGSP 261209Z 2612/2712 07004KT 4SM BR OVC006
      TEMPO 2612/2614 19004KT 1SM BR OVC004
     FM261500 22007KT P6SM BKN016
     FM261900 22011G19KT P6SM BKN040
     FM270100 24005KT P6SM -SHRA OVC070 PROB30 2704/2707 4SM TSRA
      OVC040CB
     FM270700 33005KT 6SM -SHRA OVC012=



000
FTUS42 KGSP 261209 AAA
TAFGSP
TAF AMD
KGSP 261209Z 2612/2712 07004KT 4SM BR OVC006
      TEMPO 2612/2614 19004KT 1SM BR OVC004
     FM261500 22007KT P6SM BKN016
     FM261900 22011G19KT P6SM BKN040
     FM270100 24005KT P6SM -SHRA OVC070 PROB30 2704/2707 4SM TSRA
      OVC040CB
     FM270700 33005KT 6SM -SHRA OVC012=



000
FTUS42 KGSP 261139
TAFCLT
TAF
KCLT 261139Z 2612/2712 32004KT P6SM OVC005
      TEMPO 2612/2614 19004KT SCT007 OVC012
     FM261400 21007KT P6SM OVC011
     FM261700 21010G19KT P6SM SCT025 BKN045
     FM270300 21007KT P6SM BKN045 PROB30 2706/2709 4SM TSRA OVC025CB
     FM270900 35009KT 6SM -SHRA OVC017=



000
FTUS42 KGSP 261139
TAFAVL
TAF
KAVL 261139Z 2612/2712 20003KT 4SM BR BKN013 OVC025
      TEMPO 2612/2614 6SM BR SCT007 OVC015
     FM261400 21004KT P6SM BKN021
     FM261700 21007KT P6SM BKN035 PROB30 2701/2704 4SM TSRA BKN040CB
     FM270600 35010G20KT 6SM -SHRA OVC020
     FM270900 35010G18KT P6SM OVC024=



000
FTUS42 KGSP 261139
TAFGSP
TAF
KGSP 261139Z 2612/2712 07004KT P6SM BKN008 BKN015 OVC070
      TEMPO 2612/2614 19004KT SCT009 BKN015 OVC025
     FM261400 22007KT P6SM BKN016
     FM261900 22011G19KT P6SM BKN040
     FM270100 24005KT P6SM -SHRA OVC070 PROB30 2704/2707 4SM TSRA
      OVC040CB
     FM270700 33005KT 6SM -SHRA OVC012=



000
FTUS42 KGSP 261139
TAFAVL
TAF
KAVL 261139Z 2612/2712 20003KT 4SM BR BKN013 OVC025
      TEMPO 2612/2614 6SM BR SCT007 OVC015
     FM261400 21004KT P6SM BKN021
     FM261700 21007KT P6SM BKN035 PROB30 2701/2704 4SM TSRA BKN040CB
     FM270600 35010G20KT 6SM -SHRA OVC020
     FM270900 35010G18KT P6SM OVC024=



000
FTUS42 KGSP 261139
TAFCLT
TAF
KCLT 261139Z 2612/2712 32004KT P6SM OVC005
      TEMPO 2612/2614 19004KT SCT007 OVC012
     FM261400 21007KT P6SM OVC011
     FM261700 21010G19KT P6SM SCT025 BKN045
     FM270300 21007KT P6SM BKN045 PROB30 2706/2709 4SM TSRA OVC025CB
     FM270900 35009KT 6SM -SHRA OVC017=



000
FTUS42 KGSP 261139
TAFCLT
TAF
KCLT 261139Z 2612/2712 32004KT P6SM OVC005
      TEMPO 2612/2614 19004KT SCT007 OVC012
     FM261400 21007KT P6SM OVC011
     FM261700 21010G19KT P6SM SCT025 BKN045
     FM270300 21007KT P6SM BKN045 PROB30 2706/2709 4SM TSRA OVC025CB
     FM270900 35009KT 6SM -SHRA OVC017=



000
FTUS42 KGSP 261139
TAFAVL
TAF
KAVL 261139Z 2612/2712 20003KT 4SM BR BKN013 OVC025
      TEMPO 2612/2614 6SM BR SCT007 OVC015
     FM261400 21004KT P6SM BKN021
     FM261700 21007KT P6SM BKN035 PROB30 2701/2704 4SM TSRA BKN040CB
     FM270600 35010G20KT 6SM -SHRA OVC020
     FM270900 35010G18KT P6SM OVC024=



000
FTUS42 KGSP 261139
TAFCLT
TAF
KCLT 261139Z 2612/2712 32004KT P6SM OVC005
      TEMPO 2612/2614 19004KT SCT007 OVC012
     FM261400 21007KT P6SM OVC011
     FM261700 21010G19KT P6SM SCT025 BKN045
     FM270300 21007KT P6SM BKN045 PROB30 2706/2709 4SM TSRA OVC025CB
     FM270900 35009KT 6SM -SHRA OVC017=



000
FTUS42 KGSP 261139
TAFAVL
TAF
KAVL 261139Z 2612/2712 20003KT 4SM BR BKN013 OVC025
      TEMPO 2612/2614 6SM BR SCT007 OVC015
     FM261400 21004KT P6SM BKN021
     FM261700 21007KT P6SM BKN035 PROB30 2701/2704 4SM TSRA BKN040CB
     FM270600 35010G20KT 6SM -SHRA OVC020
     FM270900 35010G18KT P6SM OVC024=



000
FTUS42 KGSP 261139
TAFGSP
TAF
KGSP 261139Z 2612/2712 07004KT P6SM BKN008 BKN015 OVC070
      TEMPO 2612/2614 19004KT SCT009 BKN015 OVC025
     FM261400 22007KT P6SM BKN016
     FM261900 22011G19KT P6SM BKN040
     FM270100 24005KT P6SM -SHRA OVC070 PROB30 2704/2707 4SM TSRA
      OVC040CB
     FM270700 33005KT 6SM -SHRA OVC012=



000
FTUS42 KGSP 261024 AAA
TAFAVL
TAF AMD
KAVL 261024Z 2610/2706 20003KT 4SM BR BKN013 OVC025
      TEMPO 2612/2614 6SM BR SCT007 OVC015
     FM261400 21004KT P6SM BKN021
     FM261700 21007KT P6SM BKN035 PROB30 2621/2624 4SM TSRA BKN040CB
     FM270530 33010G20KT P6SM -SHRA OVC020=



000
FTUS42 KGSP 261024 AAA
TAFAVL
TAF AMD
KAVL 261024Z 2610/2706 20003KT 4SM BR BKN013 OVC025
      TEMPO 2612/2614 6SM BR SCT007 OVC015
     FM261400 21004KT P6SM BKN021
     FM261700 21007KT P6SM BKN035 PROB30 2621/2624 4SM TSRA BKN040CB
     FM270530 33010G20KT P6SM -SHRA OVC020=



000
FTUS42 KGSP 261016 AAB
TAFGSP
TAF AMD
KGSP 261016Z 2610/2706 07004KT P6SM BKN009 BKN015 OVC070
      TEMPO 2612/2614 19004KT BKN005 OVC010
     FM261400 22007KT P6SM BKN016
     FM261900 22011G19KT P6SM BKN040
     FM270100 24005KT P6SM -SHRA OVC070
     FM270530 33005KT 6SM -SHRA OVC012=



000
FTUS42 KGSP 260911 AAA
TAFCLT
TAF AMD
KCLT 260911Z 2609/2706 30003KT P6SM OVC007
      TEMPO 2612/2614 19004KT SCT007 OVC012
     FM261400 21006KT P6SM BKN014
     FM261600 21009G18KT P6SM BKN035
     FM262200 22012G19KT P6SM BKN080
     FM270200 22007KT P6SM SCT015 BKN100=



000
FTUS42 KGSP 260911 AAA
TAFCLT
TAF AMD
KCLT 260911Z 2609/2706 30003KT P6SM OVC007
      TEMPO 2612/2614 19004KT SCT007 OVC012
     FM261400 21006KT P6SM BKN014
     FM261600 21009G18KT P6SM BKN035
     FM262200 22012G19KT P6SM BKN080
     FM270200 22007KT P6SM SCT015 BKN100=



000
FTUS42 KGSP 260911 AAA
TAFCLT
TAF AMD
KCLT 260911Z 2609/2706 30003KT P6SM OVC007
      TEMPO 2612/2614 19004KT SCT007 OVC012
     FM261400 21006KT P6SM BKN014
     FM261600 21009G18KT P6SM BKN035
     FM262200 22012G19KT P6SM BKN080
     FM270200 22007KT P6SM SCT015 BKN100=



000
FTUS42 KGSP 260911 AAA
TAFCLT
TAF AMD
KCLT 260911Z 2609/2706 30003KT P6SM OVC007
      TEMPO 2612/2614 19004KT SCT007 OVC012
     FM261400 21006KT P6SM BKN014
     FM261600 21009G18KT P6SM BKN035
     FM262200 22012G19KT P6SM BKN080
     FM270200 22007KT P6SM SCT015 BKN100=



000
FTUS42 KGSP 260540
TAFGSP
TAF
KGSP 260540Z 2606/2706 05004KT 6SM BR BKN017
      TEMPO 2606/2609 6SM -RA BR BKN009 OVC011
     FM260900 06003KT 5SM -DZ BR BKN005
     FM261100 00000KT 4SM BR BKN003
     FM261500 22007KT P6SM BKN021
     FM261700 22009G19KT P6SM BKN035
     FM270100 23005KT P6SM SCT015 BKN080=



000
FTUS42 KGSP 260540
TAFAVL
TAF
KAVL 260540Z 2606/2706 10003KT 5SM -RA BR BKN004
     FM260800 12004KT 3SM -RA BR BKN003
     FM261200 00000KT 2SM BR BKN008
     FM261700 22006KT P6SM BKN045
     FM262100 20008KT P6SM BKN060
     FM270200 28005KT 4SM -SHRA BKN045=



000
FTUS42 KGSP 260540
TAFAVL
TAF
KAVL 260540Z 2606/2706 10003KT 5SM -RA BR BKN004
     FM260800 12004KT 3SM -RA BR BKN003
     FM261200 00000KT 2SM BR BKN008
     FM261700 22006KT P6SM BKN045
     FM262100 20008KT P6SM BKN060
     FM270200 28005KT 4SM -SHRA BKN045=



000
FTUS42 KGSP 260540
TAFAVL
TAF
KAVL 260540Z 2606/2706 10003KT 5SM -RA BR BKN004
     FM260800 12004KT 3SM -RA BR BKN003
     FM261200 00000KT 2SM BR BKN008
     FM261700 22006KT P6SM BKN045
     FM262100 20008KT P6SM BKN060
     FM270200 28005KT 4SM -SHRA BKN045=



000
FTUS42 KGSP 260540
TAFCLT
TAF
KCLT 260540Z 2606/2706 02003KT P6SM BKN011
      TEMPO 2606/2609 6SM -RA BR BKN009 OVC011
     FM260900 12003KT 5SM -DZ BR SCT003 BKN005
     FM261400 21006KT P6SM BKN014
     FM261600 21009G18KT P6SM BKN035
     FM262200 22012G19KT P6SM BKN080
     FM270200 22007KT P6SM SCT015 BKN100=



000
FTUS42 KGSP 260540
TAFGSP
TAF
KGSP 260540Z 2606/2706 05004KT 6SM BR BKN017
      TEMPO 2606/2609 6SM -RA BR BKN009 OVC011
     FM260900 06003KT 5SM -DZ BR BKN005
     FM261100 00000KT 4SM BR BKN003
     FM261500 22007KT P6SM BKN021
     FM261700 22009G19KT P6SM BKN035
     FM270100 23005KT P6SM SCT015 BKN080=



000
FTUS42 KGSP 260540
TAFCLT
TAF
KCLT 260540Z 2606/2706 02003KT P6SM BKN011
      TEMPO 2606/2609 6SM -RA BR BKN009 OVC011
     FM260900 12003KT 5SM -DZ BR SCT003 BKN005
     FM261400 21006KT P6SM BKN014
     FM261600 21009G18KT P6SM BKN035
     FM262200 22012G19KT P6SM BKN080
     FM270200 22007KT P6SM SCT015 BKN100=



000
FTUS42 KGSP 260540
TAFCLT
TAF
KCLT 260540Z 2606/2706 02003KT P6SM BKN011
      TEMPO 2606/2609 6SM -RA BR BKN009 OVC011
     FM260900 12003KT 5SM -DZ BR SCT003 BKN005
     FM261400 21006KT P6SM BKN014
     FM261600 21009G18KT P6SM BKN035
     FM262200 22012G19KT P6SM BKN080
     FM270200 22007KT P6SM SCT015 BKN100=



000
FTUS42 KGSP 260540
TAFAVL
TAF
KAVL 260540Z 2606/2706 10003KT 5SM -RA BR BKN004
     FM260800 12004KT 3SM -RA BR BKN003
     FM261200 00000KT 2SM BR BKN008
     FM261700 22006KT P6SM BKN045
     FM262100 20008KT P6SM BKN060
     FM270200 28005KT 4SM -SHRA BKN045=



000
FTUS42 KGSP 260540
TAFCLT
TAF
KCLT 260540Z 2606/2706 02003KT P6SM BKN011
      TEMPO 2606/2609 6SM -RA BR BKN009 OVC011
     FM260900 12003KT 5SM -DZ BR SCT003 BKN005
     FM261400 21006KT P6SM BKN014
     FM261600 21009G18KT P6SM BKN035
     FM262200 22012G19KT P6SM BKN080
     FM270200 22007KT P6SM SCT015 BKN100=



000
FTUS42 KGSP 260232 AAB
TAFGSP
TAF AMD
KGSP 260232Z 2603/2624 03006KT P6SM OVC035
      TEMPO 2603/2605 BKN025
     FM260500 05004KT 4SM BR BKN015
     FM260700 00000KT 3SM BR VCSH OVC006
     FM261400 22006KT P6SM BKN020
     FM261600 22009KT P6SM BKN050=



000
FTUS42 KGSP 260232 AAB
TAFGSP
TAF AMD
KGSP 260232Z 2603/2624 03006KT P6SM OVC035
      TEMPO 2603/2605 BKN025
     FM260500 05004KT 4SM BR BKN015
     FM260700 00000KT 3SM BR VCSH OVC006
     FM261400 22006KT P6SM BKN020
     FM261600 22009KT P6SM BKN050=



000
FTUS42 KGSP 260030 AAA
TAFAVL
TAF AMD
KAVL 260030Z 2601/2624 14005KT P6SM BKN007 OVC015
     FM260400 14004KT 6SM BR BKN006
     FM260600 15004KT 5SM BR BKN005
     FM261200 18004KT 4SM BR BKN025
     FM261600 21008KT P6SM BKN050=



000
FTUS42 KGSP 260030 AAA
TAFAVL
TAF AMD
KAVL 260030Z 2601/2624 14005KT P6SM BKN007 OVC015
     FM260400 14004KT 6SM BR BKN006
     FM260600 15004KT 5SM BR BKN005
     FM261200 18004KT 4SM BR BKN025
     FM261600 21008KT P6SM BKN050=



000
FTUS42 KGSP 260030 AAA
TAFAVL
TAF AMD
KAVL 260030Z 2601/2624 14005KT P6SM BKN007 OVC015
     FM260400 14004KT 6SM BR BKN006
     FM260600 15004KT 5SM BR BKN005
     FM261200 18004KT 4SM BR BKN025
     FM261600 21008KT P6SM BKN050=



000
FTUS42 KGSP 260030 AAA
TAFAVL
TAF AMD
KAVL 260030Z 2601/2624 14005KT P6SM BKN007 OVC015
     FM260400 14004KT 6SM BR BKN006
     FM260600 15004KT 5SM BR BKN005
     FM261200 18004KT 4SM BR BKN025
     FM261600 21008KT P6SM BKN050=



000
FTUS42 KGSP 260005 AAA
TAFCLT
TAF AMD
KCLT 260005Z 2600/2624 11007KT P6SM OVC028
      TEMPO 2600/2602 SCT035 BKN040
     FM260300 12003KT P6SM BKN009
     FM260700 14003KT 4SM BR VCSH OVC005
     FM261200 19004KT 5SM BR BKN003
     FM261500 21007KT P6SM BKN025
     FM261600 22008KT P6SM BKN050=



000
FTUS42 KGSP 260005 AAA
TAFCLT
TAF AMD
KCLT 260005Z 2600/2624 11007KT P6SM OVC028
      TEMPO 2600/2602 SCT035 BKN040
     FM260300 12003KT P6SM BKN009
     FM260700 14003KT 4SM BR VCSH OVC005
     FM261200 19004KT 5SM BR BKN003
     FM261500 21007KT P6SM BKN025
     FM261600 22008KT P6SM BKN050=



000
FTUS42 KGSP 252334
TAFAVL
TAF
KAVL 252334Z 2600/2624 12006KT P6SM SCT016 BKN035
     FM260100 14003KT 6SM BR BKN011
     FM260400 14004KT 6SM BR BKN008
     FM260600 15004KT 5SM BR BKN005
     FM261200 18004KT 4SM BR BKN025
     FM261600 21008KT P6SM BKN050=



000
FTUS42 KGSP 252334
TAFCLT
TAF
KCLT 252334Z 2600/2624 11007KT P6SM OVC028
     FM260300 12003KT P6SM BKN009
     FM260700 14003KT 4SM BR VCSH OVC005
     FM261200 19004KT 5SM BR BKN003
     FM261500 21007KT P6SM BKN025
     FM261600 22008KT P6SM BKN050=



000
FTUS42 KGSP 252334
TAFAVL
TAF
KAVL 252334Z 2600/2624 12006KT P6SM SCT016 BKN035
     FM260100 14003KT 6SM BR BKN011
     FM260400 14004KT 6SM BR BKN008
     FM260600 15004KT 5SM BR BKN005
     FM261200 18004KT 4SM BR BKN025
     FM261600 21008KT P6SM BKN050=



000
FTUS42 KGSP 252334
TAFCLT
TAF
KCLT 252334Z 2600/2624 11007KT P6SM OVC028
     FM260300 12003KT P6SM BKN009
     FM260700 14003KT 4SM BR VCSH OVC005
     FM261200 19004KT 5SM BR BKN003
     FM261500 21007KT P6SM BKN025
     FM261600 22008KT P6SM BKN050=



000
FTUS42 KGSP 252334
TAFGSP
TAF
KGSP 252334Z 2600/2624 03005KT 6SM BR BKN026 OVC035
     FM260300 05004KT 4SM BR BKN007
     FM260700 00000KT 3SM BR VCSH OVC004
     FM261400 22006KT P6SM BKN020
     FM261600 22009KT P6SM BKN050=



000
FTUS42 KGSP 252334
TAFAVL
TAF
KAVL 252334Z 2600/2624 12006KT P6SM SCT016 BKN035
     FM260100 14003KT 6SM BR BKN011
     FM260400 14004KT 6SM BR BKN008
     FM260600 15004KT 5SM BR BKN005
     FM261200 18004KT 4SM BR BKN025
     FM261600 21008KT P6SM BKN050=



000
FTUS42 KGSP 252334
TAFCLT
TAF
KCLT 252334Z 2600/2624 11007KT P6SM OVC028
     FM260300 12003KT P6SM BKN009
     FM260700 14003KT 4SM BR VCSH OVC005
     FM261200 19004KT 5SM BR BKN003
     FM261500 21007KT P6SM BKN025
     FM261600 22008KT P6SM BKN050=



000
FTUS42 KGSP 252334
TAFAVL
TAF
KAVL 252334Z 2600/2624 12006KT P6SM SCT016 BKN035
     FM260100 14003KT 6SM BR BKN011
     FM260400 14004KT 6SM BR BKN008
     FM260600 15004KT 5SM BR BKN005
     FM261200 18004KT 4SM BR BKN025
     FM261600 21008KT P6SM BKN050=



000
FTUS42 KGSP 252059 AAB
TAFCLT
TAF AMD
KCLT 252059Z 2521/2618 11007KT P6SM BKN030 BKN050
      TEMPO 2522/2524 SCT030 BKN050
     FM260000 06005KT P6SM BKN020 OVC050
     FM260300 12003KT 6SM BR VCSH OVC007
     FM260800 19004KT 5SM BR OVC005
     FM261400 21007KT P6SM BKN019
     FM261700 22008KT P6SM BKN030=



000
FTUS42 KGSP 252059 AAB
TAFCLT
TAF AMD
KCLT 252059Z 2521/2618 11007KT P6SM BKN030 BKN050
      TEMPO 2522/2524 SCT030 BKN050
     FM260000 06005KT P6SM BKN020 OVC050
     FM260300 12003KT 6SM BR VCSH OVC007
     FM260800 19004KT 5SM BR OVC005
     FM261400 21007KT P6SM BKN019
     FM261700 22008KT P6SM BKN030=



000
FTUS42 KGSP 251815 AAA
TAFCLT
TAF AMD
KCLT 251815Z 2518/2618 08004KT P6SM BKN025 BKN050
      TEMPO 2518/2522 SCT025 BKN050
     FM252200 06005KT P6SM BKN020 OVC050
     FM260600 12003KT 6SM -RADZ BR OVC007
     FM261100 19004KT 5SM BR OVC005
     FM261400 21007KT P6SM BKN019
     FM261700 22008KT P6SM BKN030=



000
FTUS42 KGSP 251815 AAA
TAFCLT
TAF AMD
KCLT 251815Z 2518/2618 08004KT P6SM BKN025 BKN050
      TEMPO 2518/2522 SCT025 BKN050
     FM252200 06005KT P6SM BKN020 OVC050
     FM260600 12003KT 6SM -RADZ BR OVC007
     FM261100 19004KT 5SM BR OVC005
     FM261400 21007KT P6SM BKN019
     FM261700 22008KT P6SM BKN030=



000
FTUS42 KGSP 251815 AAA
TAFCLT
TAF AMD
KCLT 251815Z 2518/2618 08004KT P6SM BKN025 BKN050
      TEMPO 2518/2522 SCT025 BKN050
     FM252200 06005KT P6SM BKN020 OVC050
     FM260600 12003KT 6SM -RADZ BR OVC007
     FM261100 19004KT 5SM BR OVC005
     FM261400 21007KT P6SM BKN019
     FM261700 22008KT P6SM BKN030=



000
FTUS42 KGSP 251815 AAA
TAFCLT
TAF AMD
KCLT 251815Z 2518/2618 08004KT P6SM BKN025 BKN050
      TEMPO 2518/2522 SCT025 BKN050
     FM252200 06005KT P6SM BKN020 OVC050
     FM260600 12003KT 6SM -RADZ BR OVC007
     FM261100 19004KT 5SM BR OVC005
     FM261400 21007KT P6SM BKN019
     FM261700 22008KT P6SM BKN030=



000
FTUS42 KGSP 251743
TAFGSP
TAF
KGSP 251743Z 2518/2618 07005KT 6SM BR OVC008
     FM251900 06005KT P6SM VCSH SCT008 OVC015
     FM260300 05004KT 6SM BR OVC008
     FM260700 07003KT 6SM -RADZ BR OVC004
     FM261400 22007KT P6SM BKN016
     FM261700 23010KT P6SM BKN030=



000
FTUS42 KGSP 251743
TAFCLT
TAF
KCLT 251743Z 2518/2618 08006KT P6SM FEW020 BKN050
     FM252300 06005KT P6SM BKN020 OVC050
     FM260600 12003KT 6SM -RADZ BR OVC007
     FM261100 19004KT 5SM BR OVC005
     FM261400 21007KT P6SM BKN019
     FM261700 22008KT P6SM BKN030=



000
FTUS42 KGSP 251743
TAFAVL
TAF
KAVL 251743Z 2518/2618 15004KT 3SM -RADZ BR OVC006
     FM252000 14004KT 5SM BR VCSH BKN008 OVC020
     FM260500 14003KT 4SM -RADZ BR BKN004
     FM260900 17004KT 1/2SM -DZ FG OVC002
     FM261400 19006KT P6SM BKN008
     FM261700 21008KT P6SM BKN045=



000
FTUS42 KGSP 251743
TAFCLT
TAF
KCLT 251743Z 2518/2618 08006KT P6SM FEW020 BKN050
     FM252300 06005KT P6SM BKN020 OVC050
     FM260600 12003KT 6SM -RADZ BR OVC007
     FM261100 19004KT 5SM BR OVC005
     FM261400 21007KT P6SM BKN019
     FM261700 22008KT P6SM BKN030=



000
FTUS42 KGSP 251743
TAFAVL
TAF
KAVL 251743Z 2518/2618 15004KT 3SM -RADZ BR OVC006
     FM252000 14004KT 5SM BR VCSH BKN008 OVC020
     FM260500 14003KT 4SM -RADZ BR BKN004
     FM260900 17004KT 1/2SM -DZ FG OVC002
     FM261400 19006KT P6SM BKN008
     FM261700 21008KT P6SM BKN045=



000
FTUS42 KGSP 251743
TAFGSP
TAF
KGSP 251743Z 2518/2618 07005KT 6SM BR OVC008
     FM251900 06005KT P6SM VCSH SCT008 OVC015
     FM260300 05004KT 6SM BR OVC008
     FM260700 07003KT 6SM -RADZ BR OVC004
     FM261400 22007KT P6SM BKN016
     FM261700 23010KT P6SM BKN030=



000
FTUS42 KGSP 251743
TAFAVL
TAF
KAVL 251743Z 2518/2618 15004KT 3SM -RADZ BR OVC006
     FM252000 14004KT 5SM BR VCSH BKN008 OVC020
     FM260500 14003KT 4SM -RADZ BR BKN004
     FM260900 17004KT 1/2SM -DZ FG OVC002
     FM261400 19006KT P6SM BKN008
     FM261700 21008KT P6SM BKN045=



000
FTUS42 KGSP 251743
TAFCLT
TAF
KCLT 251743Z 2518/2618 08006KT P6SM FEW020 BKN050
     FM252300 06005KT P6SM BKN020 OVC050
     FM260600 12003KT 6SM -RADZ BR OVC007
     FM261100 19004KT 5SM BR OVC005
     FM261400 21007KT P6SM BKN019
     FM261700 22008KT P6SM BKN030=



000
FTUS42 KGSP 251743
TAFAVL
TAF
KAVL 251743Z 2518/2618 15004KT 3SM -RADZ BR OVC006
     FM252000 14004KT 5SM BR VCSH BKN008 OVC020
     FM260500 14003KT 4SM -RADZ BR BKN004
     FM260900 17004KT 1/2SM -DZ FG OVC002
     FM261400 19006KT P6SM BKN008
     FM261700 21008KT P6SM BKN045=



000
FTUS42 KGSP 251743
TAFCLT
TAF
KCLT 251743Z 2518/2618 08006KT P6SM FEW020 BKN050
     FM252300 06005KT P6SM BKN020 OVC050
     FM260600 12003KT 6SM -RADZ BR OVC007
     FM261100 19004KT 5SM BR OVC005
     FM261400 21007KT P6SM BKN019
     FM261700 22008KT P6SM BKN030=



000
FTUS42 KGSP 251647 AAB
TAFCLT
TAF AMD
KCLT 251647Z 2517/2612 07007KT P6SM FEW015 BKN060
      TEMPO 2517/2521 BKN020 BKN060
     FM252100 08006KT P6SM VCSH BKN020 OVC060
     FM260200 03006KT 6SM -RADZ BR BKN007 OVC013
     FM260400 13005KT P6SM BKN004 OVC013=



000
FTUS42 KGSP 251647 AAB
TAFCLT
TAF AMD
KCLT 251647Z 2517/2612 07007KT P6SM FEW015 BKN060
      TEMPO 2517/2521 BKN020 BKN060
     FM252100 08006KT P6SM VCSH BKN020 OVC060
     FM260200 03006KT 6SM -RADZ BR BKN007 OVC013
     FM260400 13005KT P6SM BKN004 OVC013=



000
FTUS42 KGSP 251647 AAB
TAFCLT
TAF AMD
KCLT 251647Z 2517/2612 07007KT P6SM FEW015 BKN060
      TEMPO 2517/2521 BKN020 BKN060
     FM252100 08006KT P6SM VCSH BKN020 OVC060
     FM260200 03006KT 6SM -RADZ BR BKN007 OVC013
     FM260400 13005KT P6SM BKN004 OVC013=



000
FTUS42 KGSP 251459 AAA
TAFCLT
TAF AMD
KCLT 251459Z 2515/2612 08007KT P6SM OVC011
      TEMPO 2515/2518 6SM -RADZ BKN009 OVC012
     FM251800 08006KT P6SM VCSH SCT009 OVC013
     FM260000 03006KT 6SM -RADZ BR BKN007 OVC013
     FM260400 04005KT P6SM BKN004 OVC013=



000
FTUS42 KGSP 251459 AAA
TAFCLT
TAF AMD
KCLT 251459Z 2515/2612 08007KT P6SM OVC011
      TEMPO 2515/2518 6SM -RADZ BKN009 OVC012
     FM251800 08006KT P6SM VCSH SCT009 OVC013
     FM260000 03006KT 6SM -RADZ BR BKN007 OVC013
     FM260400 04005KT P6SM BKN004 OVC013=



000
FTUS42 KGSP 251459 AAA
TAFCLT
TAF AMD
KCLT 251459Z 2515/2612 08007KT P6SM OVC011
      TEMPO 2515/2518 6SM -RADZ BKN009 OVC012
     FM251800 08006KT P6SM VCSH SCT009 OVC013
     FM260000 03006KT 6SM -RADZ BR BKN007 OVC013
     FM260400 04005KT P6SM BKN004 OVC013=



000
FTUS42 KGSP 251459 AAA
TAFCLT
TAF AMD
KCLT 251459Z 2515/2612 08007KT P6SM OVC011
      TEMPO 2515/2518 6SM -RADZ BKN009 OVC012
     FM251800 08006KT P6SM VCSH SCT009 OVC013
     FM260000 03006KT 6SM -RADZ BR BKN007 OVC013
     FM260400 04005KT P6SM BKN004 OVC013=



000
FTUS42 KGSP 251401 AAC
TAFGSP
TAF AMD
KGSP 251401Z 2514/2612 04006KT 5SM -RADZ OVC007
      TEMPO 2514/2517 3SM -RA BR OVC006
     FM251700 05005KT 5SM -RADZ BR OVC009
     FM252100 05006KT 6SM -RADZ BR BKN007 OVC012
     FM260300 03005KT 5SM BR BKN004 OVC012=



000
FTUS42 KGSP 251317 AAB
TAFGSP
TAF AMD
KGSP 251317Z 2513/2612 02004KT P6SM -RADZ OVC007
     FM251600 05005KT P6SM -RADZ OVC009
     FM252100 05006KT 6SM -RADZ BR BKN007 OVC012
     FM260300 03005KT 5SM BR BKN004 OVC012=



000
FTUS42 KGSP 251317 AAB
TAFGSP
TAF AMD
KGSP 251317Z 2513/2612 02004KT P6SM -RADZ OVC007
     FM251600 05005KT P6SM -RADZ OVC009
     FM252100 05006KT 6SM -RADZ BR BKN007 OVC012
     FM260300 03005KT 5SM BR BKN004 OVC012=



000
FTUS42 KGSP 251315 AAA
TAFAVL
TAF AMD
KAVL 251315Z 2513/2612 14006KT 3SM -DZ BR OVC009
     FM251600 00000KT 5SM -RADZ BR BKN009 OVC025
     FM252100 12004KT 6SM -RADZ BR OVC007
     FM260500 00000KT 3SM -RADZ BR BKN007 BKN012=



000
FTUS42 KGSP 251315 AAA
TAFAVL
TAF AMD
KAVL 251315Z 2513/2612 14006KT 3SM -DZ BR OVC009
     FM251600 00000KT 5SM -RADZ BR BKN009 OVC025
     FM252100 12004KT 6SM -RADZ BR OVC007
     FM260500 00000KT 3SM -RADZ BR BKN007 BKN012=



000
FTUS42 KGSP 251315 AAA
TAFAVL
TAF AMD
KAVL 251315Z 2513/2612 14006KT 3SM -DZ BR OVC009
     FM251600 00000KT 5SM -RADZ BR BKN009 OVC025
     FM252100 12004KT 6SM -RADZ BR OVC007
     FM260500 00000KT 3SM -RADZ BR BKN007 BKN012=



000
FTUS42 KGSP 251315 AAA
TAFAVL
TAF AMD
KAVL 251315Z 2513/2612 14006KT 3SM -DZ BR OVC009
     FM251600 00000KT 5SM -RADZ BR BKN009 OVC025
     FM252100 12004KT 6SM -RADZ BR OVC007
     FM260500 00000KT 3SM -RADZ BR BKN007 BKN012=



000
FTUS42 KGSP 251128
TAFAVL
TAF
KAVL 251128Z 2512/2612 15006KT P6SM BKN025 OVC040
     FM251400 00000KT 6SM -RADZ BR BKN011 OVC025
      TEMPO 2514/2518 6SM -RADZ BKN009 OVC012
     FM252100 12004KT 6SM -RADZ BR OVC007
     FM260500 00000KT 3SM -RADZ BR BKN007 BKN012=



000
FTUS42 KGSP 251128
TAFAVL
TAF
KAVL 251128Z 2512/2612 15006KT P6SM BKN025 OVC040
     FM251400 00000KT 6SM -RADZ BR BKN011 OVC025
      TEMPO 2514/2518 6SM -RADZ BKN009 OVC012
     FM252100 12004KT 6SM -RADZ BR OVC007
     FM260500 00000KT 3SM -RADZ BR BKN007 BKN012=



000
FTUS42 KGSP 251128
TAFCLT
TAF
KCLT 251128Z 2512/2612 10009KT P6SM VCSH BKN008 OVC013
      TEMPO 2514/2517 6SM -RADZ SCT009 OVC012
     FM251700 10006KT P6SM SCT009 OVC013
     FM260000 03006KT 6SM -RADZ BR SCT007 OVC013
     FM260400 04005KT P6SM BKN004 OVC013=



000
FTUS42 KGSP 251128
TAFCLT
TAF
KCLT 251128Z 2512/2612 10009KT P6SM VCSH BKN008 OVC013
      TEMPO 2514/2517 6SM -RADZ SCT009 OVC012
     FM251700 10006KT P6SM SCT009 OVC013
     FM260000 03006KT 6SM -RADZ BR SCT007 OVC013
     FM260400 04005KT P6SM BKN004 OVC013=



000
FTUS42 KGSP 251128
TAFCLT
TAF
KCLT 251128Z 2512/2612 10009KT P6SM VCSH BKN008 OVC013
      TEMPO 2514/2517 6SM -RADZ SCT009 OVC012
     FM251700 10006KT P6SM SCT009 OVC013
     FM260000 03006KT 6SM -RADZ BR SCT007 OVC013
     FM260400 04005KT P6SM BKN004 OVC013=



000
FTUS42 KGSP 251128
TAFGSP
TAF
KGSP 251128Z 2512/2612 04006KT P6SM BKN020 OVC060
      TEMPO 2512/2515 6SM -RADZ BKN009 OVC012
     FM251500 05005KT P6SM OVC009
     FM252100 05006KT 6SM -RADZ BR BKN007 OVC012
     FM260300 03005KT P6SM BKN004 OVC012=



000
FTUS42 KGSP 251128
TAFAVL
TAF
KAVL 251128Z 2512/2612 15006KT P6SM BKN025 OVC040
     FM251400 00000KT 6SM -RADZ BR BKN011 OVC025
      TEMPO 2514/2518 6SM -RADZ BKN009 OVC012
     FM252100 12004KT 6SM -RADZ BR OVC007
     FM260500 00000KT 3SM -RADZ BR BKN007 BKN012=



000
FTUS42 KGSP 251012 AAB
TAFGSP
TAF AMD
KGSP 251012Z 2510/2606 03003KT P6SM BKN019 BKN025 OVC060
      TEMPO 2512/2515 6SM -RADZ BKN009 OVC012
     FM251500 05005KT P6SM OVC009
     FM252100 05006KT 6SM -RADZ BR BKN007
     FM260300 03005KT P6SM BKN004=



000
FTUS42 KGSP 251012 AAB
TAFGSP
TAF AMD
KGSP 251012Z 2510/2606 03003KT P6SM BKN019 BKN025 OVC060
      TEMPO 2512/2515 6SM -RADZ BKN009 OVC012
     FM251500 05005KT P6SM OVC009
     FM252100 05006KT 6SM -RADZ BR BKN007
     FM260300 03005KT P6SM BKN004=



000
FTUS42 KGSP 250919 AAA
TAFCLT
TAF AMD
KCLT 250919Z 2509/2606 10004KT P6SM BKN009 OVC013
     FM251700 10006KT P6SM SCT009 OVC013
     FM260000 03006KT 6SM -RADZ BR OVC007
     FM260300 04005KT P6SM BKN004=



000
FTUS42 KGSP 250919 AAA
TAFCLT
TAF AMD
KCLT 250919Z 2509/2606 10004KT P6SM BKN009 OVC013
     FM251700 10006KT P6SM SCT009 OVC013
     FM260000 03006KT 6SM -RADZ BR OVC007
     FM260300 04005KT P6SM BKN004=



000
FTUS42 KGSP 250919 AAA
TAFCLT
TAF AMD
KCLT 250919Z 2509/2606 10004KT P6SM BKN009 OVC013
     FM251700 10006KT P6SM SCT009 OVC013
     FM260000 03006KT 6SM -RADZ BR OVC007
     FM260300 04005KT P6SM BKN004=



000
FTUS42 KGSP 250919 AAA
TAFCLT
TAF AMD
KCLT 250919Z 2509/2606 10004KT P6SM BKN009 OVC013
     FM251700 10006KT P6SM SCT009 OVC013
     FM260000 03006KT 6SM -RADZ BR OVC007
     FM260300 04005KT P6SM BKN004=



000
FTUS42 KGSP 250535
TAFAVL
TAF
KAVL 250535Z 2506/2606 16006KT P6SM BKN040 BKN050
     FM250900 15006KT P6SM BKN019
     FM251400 00000KT 6SM -RADZ BR BKN011
     FM252100 12004KT 6SM -RADZ BR OVC007
     FM260500 00000KT 3SM -RADZ BR BKN007 BKN012=



000
FTUS42 KGSP 250535
TAFCLT
TAF
KCLT 250535Z 2506/2606 13004KT P6SM OVC200
     FM251000 09005KT P6SM SCT009 OVC013
     FM251900 09006KT P6SM SCT009 OVC019
     FM260000 03006KT 6SM -RADZ BR OVC007
     FM260300 04005KT P6SM BKN004=



000
FTUS42 KGSP 250535
TAFGSP
TAF
KGSP 250535Z 2506/2606 13004KT P6SM SCT060 BKN250
     FM251200 05003KT P6SM OVC017
     FM251500 05005KT P6SM OVC010
     FM252100 05006KT 6SM -RADZ BR BKN007
     FM260300 03005KT P6SM BKN004=



000
FTUS42 KGSP 250535
TAFAVL
TAF
KAVL 250535Z 2506/2606 16006KT P6SM BKN040 BKN050
     FM250900 15006KT P6SM BKN019
     FM251400 00000KT 6SM -RADZ BR BKN011
     FM252100 12004KT 6SM -RADZ BR OVC007
     FM260500 00000KT 3SM -RADZ BR BKN007 BKN012=



000
FTUS42 KGSP 250535
TAFCLT
TAF
KCLT 250535Z 2506/2606 13004KT P6SM OVC200
     FM251000 09005KT P6SM SCT009 OVC013
     FM251900 09006KT P6SM SCT009 OVC019
     FM260000 03006KT 6SM -RADZ BR OVC007
     FM260300 04005KT P6SM BKN004=



000
FTUS42 KGSP 250535
TAFAVL
TAF
KAVL 250535Z 2506/2606 16006KT P6SM BKN040 BKN050
     FM250900 15006KT P6SM BKN019
     FM251400 00000KT 6SM -RADZ BR BKN011
     FM252100 12004KT 6SM -RADZ BR OVC007
     FM260500 00000KT 3SM -RADZ BR BKN007 BKN012=



000
FTUS42 KGSP 250535
TAFCLT
TAF
KCLT 250535Z 2506/2606 13004KT P6SM OVC200
     FM251000 09005KT P6SM SCT009 OVC013
     FM251900 09006KT P6SM SCT009 OVC019
     FM260000 03006KT 6SM -RADZ BR OVC007
     FM260300 04005KT P6SM BKN004=



000
FTUS42 KGSP 242334
TAFCLT
TAF
KCLT 242334Z 2500/2524 17003KT P6SM FEW060 BKN250
     FM250400 14004KT P6SM BKN060
     FM250800 08004KT P6SM BKN025
     FM251000 07005KT P6SM BKN009 OVC025
     FM251200 08007KT 5SM -RADZ BR OVC009=



000
FTUS42 KGSP 242334
TAFGSP
TAF
KGSP 242334Z 2500/2524 16004KT P6SM BKN250
     FM250800 09003KT P6SM BKN025
     FM251000 05003KT 5SM -RADZ BR OVC008=



000
FTUS42 KGSP 242334
TAFAVL
TAF
KAVL 242334Z 2500/2524 17006KT P6SM BKN070
     FM250800 18004KT P6SM BKN025
     FM251000 17003KT 4SM BR BKN020
     FM251200 16003KT 4SM -RADZ BR OVC008
     FM251700 16006KT P6SM VCSH OVC015=



000
FTUS42 KGSP 242334
TAFGSP
TAF
KGSP 242334Z 2500/2524 16004KT P6SM BKN250
     FM250800 09003KT P6SM BKN025
     FM251000 05003KT 5SM -RADZ BR OVC008=



000
FTUS42 KGSP 242334
TAFAVL
TAF
KAVL 242334Z 2500/2524 17006KT P6SM BKN070
     FM250800 18004KT P6SM BKN025
     FM251000 17003KT 4SM BR BKN020
     FM251200 16003KT 4SM -RADZ BR OVC008
     FM251700 16006KT P6SM VCSH OVC015=



000
FTUS42 KGSP 242334
TAFCLT
TAF
KCLT 242334Z 2500/2524 17003KT P6SM FEW060 BKN250
     FM250400 14004KT P6SM BKN060
     FM250800 08004KT P6SM BKN025
     FM251000 07005KT P6SM BKN009 OVC025
     FM251200 08007KT 5SM -RADZ BR OVC009=



000
FTUS42 KGSP 242334
TAFCLT
TAF
KCLT 242334Z 2500/2524 17003KT P6SM FEW060 BKN250
     FM250400 14004KT P6SM BKN060
     FM250800 08004KT P6SM BKN025
     FM251000 07005KT P6SM BKN009 OVC025
     FM251200 08007KT 5SM -RADZ BR OVC009=



000
FTUS42 KGSP 242334
TAFCLT
TAF
KCLT 242334Z 2500/2524 17003KT P6SM FEW060 BKN250
     FM250400 14004KT P6SM BKN060
     FM250800 08004KT P6SM BKN025
     FM251000 07005KT P6SM BKN009 OVC025
     FM251200 08007KT 5SM -RADZ BR OVC009=



000
FTUS42 KGSP 242334
TAFAVL
TAF
KAVL 242334Z 2500/2524 17006KT P6SM BKN070
     FM250800 18004KT P6SM BKN025
     FM251000 17003KT 4SM BR BKN020
     FM251200 16003KT 4SM -RADZ BR OVC008
     FM251700 16006KT P6SM VCSH OVC015=



000
FTUS42 KGSP 242334
TAFAVL
TAF
KAVL 242334Z 2500/2524 17006KT P6SM BKN070
     FM250800 18004KT P6SM BKN025
     FM251000 17003KT 4SM BR BKN020
     FM251200 16003KT 4SM -RADZ BR OVC008
     FM251700 16006KT P6SM VCSH OVC015=



    US Dept of Commerce
    National Oceanic and Atmospheric Administration
    National Weather Service
    1325 East West Highway
    Silver Spring, MD 20910
    Page Author: NWS Internet Services Team
Disclaimer
Information Quality
Credits
Glossary
Privacy Policy
Freedom of Information Act (FOIA)
About Us
Career Opportunities